createdAt,value
2018-03-26T00:00:29.078Z,3.74
2018-03-26T00:01:28.987Z,3.72
2018-03-26T00:02:28.907Z,3.72
2018-03-26T00:03:28.826Z,3.75
2018-03-26T00:04:28.744Z,3.83
2018-03-26T00:05:28.664Z,3.72
2018-03-26T00:06:28.586Z,3.71
2018-03-26T00:07:28.501Z,3.79
2018-03-26T00:08:28.418Z,3.82
2018-03-26T00:09:28.337Z,3.80
2018-03-26T00:10:28.255Z,3.80
2018-03-26T00:11:28.175Z,3.87
2018-03-26T00:12:28.092Z,3.87
2018-03-26T00:13:28.011Z,3.82
2018-03-26T00:14:27.931Z,3.71
2018-03-26T00:15:27.850Z,3.71
2018-03-26T00:16:27.773Z,3.82
2018-03-26T00:17:27.686Z,3.77
2018-03-26T00:18:27.605Z,3.80
2018-03-26T00:19:27.524Z,3.79
2018-03-26T00:20:27.441Z,3.87
2018-03-26T00:21:27.365Z,3.89
2018-03-26T00:22:27.280Z,3.86
2018-03-26T00:23:27.198Z,3.90
2018-03-26T00:24:27.116Z,3.83
2018-03-26T00:25:27.035Z,3.90
2018-03-26T00:26:26.955Z,3.82
2018-03-26T00:27:26.874Z,3.84
2018-03-26T00:28:26.794Z,3.86
2018-03-26T00:29:26.710Z,3.89
2018-03-26T00:30:26.629Z,4.02
2018-03-26T00:31:26.549Z,4.00
2018-03-26T00:32:26.466Z,4.00
2018-03-26T00:33:26.384Z,4.00
2018-03-26T00:34:26.305Z,3.94
2018-03-26T00:35:26.224Z,3.92
2018-03-26T00:36:26.141Z,3.98
2018-03-26T00:37:26.060Z,4.00
2018-03-26T00:38:25.979Z,4.00
2018-03-26T00:39:25.898Z,3.98
2018-03-26T00:40:25.816Z,4.11
2018-03-26T00:41:25.733Z,4.10
2018-03-26T00:42:25.655Z,4.10
2018-03-26T00:43:25.574Z,4.20
2018-03-26T00:44:25.491Z,4.12
2018-03-26T00:45:25.410Z,4.28
2018-03-26T00:46:25.329Z,4.30
2018-03-26T00:47:25.248Z,4.25
2018-03-26T00:48:25.166Z,4.20
2018-03-26T00:49:25.086Z,4.12
2018-03-26T00:50:25.005Z,4.10
2018-03-26T00:51:24.925Z,4.28
2018-03-26T00:52:24.842Z,4.22
2018-03-26T00:53:24.761Z,4.34
2018-03-26T00:54:24.698Z,4.34
2018-03-26T00:55:24.599Z,4.28
2018-03-26T00:56:24.517Z,4.38
2018-03-26T00:57:24.438Z,4.52
2018-03-26T00:58:24.356Z,4.38
2018-03-26T00:59:24.275Z,4.29
2018-03-26T01:00:24.194Z,4.26
2018-03-26T01:01:24.115Z,4.25
2018-03-26T01:02:24.032Z,4.28
2018-03-26T01:03:23.951Z,4.32
2018-03-26T01:04:23.870Z,4.28
2018-03-26T01:05:23.790Z,4.34
2018-03-26T01:06:23.710Z,4.43
2018-03-26T01:07:23.630Z,4.47
2018-03-26T01:08:23.546Z,4.40
2018-03-26T01:09:23.466Z,4.47
2018-03-26T01:10:23.386Z,4.54
2018-03-26T01:11:23.304Z,4.52
2018-03-26T01:12:26.256Z,4.56
2018-03-26T01:13:23.142Z,4.61
2018-03-26T01:14:23.064Z,4.65
2018-03-26T01:15:22.982Z,4.68
2018-03-26T01:16:22.900Z,4.69
2018-03-26T01:17:22.819Z,4.77
2018-03-26T01:18:22.738Z,4.85
2018-03-26T01:19:22.659Z,4.79
2018-03-26T01:20:22.577Z,4.88
2018-03-26T01:21:22.496Z,4.92
2018-03-26T01:22:22.416Z,4.95
2018-03-26T01:23:22.336Z,4.98
2018-03-26T01:24:22.255Z,5.02
2018-03-26T01:25:22.174Z,4.96
2018-03-26T01:26:22.147Z,5.02
2018-03-26T01:27:22.014Z,5.05
2018-03-26T01:28:21.931Z,5.10
2018-03-26T01:29:21.852Z,4.92
2018-03-26T01:30:21.773Z,5.05
2018-03-26T01:31:21.691Z,5.02
2018-03-26T01:32:21.611Z,5.13
2018-03-26T01:33:21.530Z,5.21
2018-03-26T01:34:21.450Z,5.18
2018-03-26T01:35:21.370Z,5.11
2018-03-26T01:36:21.289Z,5.23
2018-03-26T01:37:21.209Z,5.17
2018-03-26T01:38:21.130Z,5.18
2018-03-26T01:39:21.050Z,5.18
2018-03-26T01:40:20.968Z,5.23
2018-03-26T01:41:20.888Z,5.35
2018-03-26T01:42:20.808Z,5.24
2018-03-26T01:43:20.728Z,5.26
2018-03-26T01:44:20.647Z,5.20
2018-03-26T01:45:20.567Z,5.23
2018-03-26T01:46:20.487Z,5.21
2018-03-26T01:47:20.407Z,5.24
2018-03-26T01:48:20.331Z,5.20
2018-03-26T01:49:20.248Z,5.20
2018-03-26T01:50:20.167Z,5.13
2018-03-26T01:51:20.086Z,5.05
2018-03-26T01:52:20.006Z,5.05
2018-03-26T01:53:19.926Z,5.10
2018-03-26T01:54:19.845Z,4.98
2018-03-26T01:55:19.765Z,5.13
2018-03-26T01:56:19.834Z,5.20
2018-03-26T01:57:19.604Z,5.21
2018-03-26T01:58:19.525Z,5.18
2018-03-26T01:59:19.446Z,5.20
2018-03-26T02:00:19.364Z,5.21
2018-03-26T02:01:19.284Z,5.24
2018-03-26T02:02:19.203Z,5.26
2018-03-26T02:03:19.124Z,5.28
2018-03-26T02:04:19.043Z,5.21
2018-03-26T02:05:18.963Z,5.31
2018-03-26T02:06:18.882Z,5.29
2018-03-26T02:07:18.806Z,5.24
2018-03-26T02:08:18.722Z,5.24
2018-03-26T02:09:18.642Z,5.31
2018-03-26T02:10:18.563Z,5.29
2018-03-26T02:11:18.485Z,5.31
2018-03-26T02:12:18.402Z,5.36
2018-03-26T02:13:18.324Z,5.34
2018-03-26T02:14:18.242Z,5.38
2018-03-26T02:15:18.164Z,5.36
2018-03-26T02:16:18.083Z,5.35
2018-03-26T02:17:18.004Z,5.34
2018-03-26T02:18:17.922Z,5.38
2018-03-26T02:19:17.842Z,5.44
2018-03-26T02:20:17.765Z,5.41
2018-03-26T02:21:17.682Z,5.38
2018-03-26T02:22:17.605Z,5.50
2018-03-26T02:23:17.523Z,5.50
2018-03-26T02:24:17.441Z,5.35
2018-03-26T02:25:17.362Z,5.39
2018-03-26T02:26:17.282Z,5.39
2018-03-26T02:27:17.202Z,5.38
2018-03-26T02:28:17.122Z,5.36
2018-03-26T02:29:17.041Z,5.29
2018-03-26T02:30:16.963Z,5.28
2018-03-26T02:31:16.884Z,5.24
2018-03-26T02:32:16.805Z,5.18
2018-03-26T02:33:16.724Z,5.20
2018-03-26T02:34:16.646Z,5.17
2018-03-26T02:35:16.575Z,5.24
2018-03-26T02:36:16.483Z,5.14
2018-03-26T02:37:16.409Z,5.11
2018-03-26T02:38:16.324Z,5.02
2018-03-26T02:39:16.243Z,5.00
2018-03-26T02:40:16.162Z,4.95
2018-03-26T02:41:16.082Z,5.03
2018-03-26T02:42:16.009Z,4.95
2018-03-26T02:43:15.923Z,5.06
2018-03-26T02:44:15.843Z,5.02
2018-03-26T02:45:15.764Z,5.08
2018-03-26T02:46:15.691Z,5.13
2018-03-26T02:47:15.602Z,5.03
2018-03-26T02:48:15.522Z,5.02
2018-03-26T02:49:15.444Z,5.11
2018-03-26T02:50:15.361Z,5.10
2018-03-26T02:51:15.282Z,5.11
2018-03-26T02:52:15.204Z,5.26
2018-03-26T02:53:15.120Z,5.21
2018-03-26T02:54:15.041Z,5.23
2018-03-26T02:55:14.966Z,5.21
2018-03-26T02:56:14.879Z,5.24
2018-03-26T02:57:14.806Z,5.11
2018-03-26T02:58:14.719Z,5.29
2018-03-26T02:59:14.639Z,5.29
2018-03-26T03:00:14.558Z,5.29
2018-03-26T03:01:14.478Z,5.26
2018-03-26T03:02:14.399Z,5.28
2018-03-26T03:03:14.318Z,5.28
2018-03-26T03:04:14.254Z,5.35
2018-03-26T03:05:14.158Z,5.35
2018-03-26T03:06:14.087Z,5.42
2018-03-26T03:07:14.000Z,5.41
2018-03-26T03:08:13.916Z,5.41
2018-03-26T03:09:13.842Z,5.34
2018-03-26T03:10:13.757Z,5.31
2018-03-26T03:11:13.678Z,5.28
2018-03-26T03:12:13.597Z,5.28
2018-03-26T03:13:13.517Z,5.38
2018-03-26T03:14:13.437Z,5.39
2018-03-26T03:15:13.358Z,5.38
2018-03-26T03:16:13.277Z,5.35
2018-03-26T03:17:13.197Z,5.34
2018-03-26T03:18:13.119Z,5.38
2018-03-26T03:19:13.037Z,5.41
2018-03-26T03:20:12.956Z,5.44
2018-03-26T03:21:12.876Z,5.34
2018-03-26T03:22:12.801Z,5.52
2018-03-26T03:23:12.718Z,5.39
2018-03-26T03:24:12.637Z,5.47
2018-03-26T03:25:12.556Z,5.49
2018-03-26T03:26:12.478Z,5.39
2018-03-26T03:27:12.406Z,5.39
2018-03-26T03:28:12.317Z,5.41
2018-03-26T03:29:12.238Z,5.38
2018-03-26T03:30:12.159Z,5.44
2018-03-26T03:31:12.081Z,5.42
2018-03-26T03:32:11.998Z,5.39
2018-03-26T03:33:11.919Z,5.38
2018-03-26T03:34:11.838Z,5.32
2018-03-26T03:35:11.759Z,5.38
2018-03-26T03:36:11.677Z,5.49
2018-03-26T03:37:11.598Z,5.39
2018-03-26T03:38:11.518Z,5.38
2018-03-26T03:39:11.439Z,5.35
2018-03-26T03:40:11.359Z,5.44
2018-03-26T03:41:11.279Z,5.45
2018-03-26T03:42:11.199Z,5.50
2018-03-26T03:43:11.120Z,5.41
2018-03-26T03:44:11.038Z,5.39
2018-03-26T03:45:10.959Z,5.53
2018-03-26T03:46:10.880Z,5.47
2018-03-26T03:47:10.800Z,5.41
2018-03-26T03:48:10.719Z,5.34
2018-03-26T03:49:10.643Z,5.34
2018-03-26T03:50:10.560Z,5.31
2018-03-26T03:51:10.481Z,5.21
2018-03-26T03:52:10.400Z,5.28
2018-03-26T03:53:10.320Z,5.39
2018-03-26T03:54:10.242Z,5.35
2018-03-26T03:55:10.161Z,5.36
2018-03-26T03:56:10.085Z,5.38
2018-03-26T03:57:10.001Z,5.36
2018-03-26T03:58:09.921Z,5.35
2018-03-26T03:59:09.841Z,5.38
2018-03-26T04:00:09.820Z,5.36
2018-03-26T04:01:09.681Z,5.35
2018-03-26T04:02:09.601Z,5.32
2018-03-26T04:03:09.521Z,5.32
2018-03-26T04:04:09.492Z,5.36
2018-03-26T04:05:09.360Z,5.49
2018-03-26T04:06:09.288Z,5.45
2018-03-26T04:07:09.201Z,5.50
2018-03-26T04:08:09.121Z,5.57
2018-03-26T04:09:09.041Z,5.53
2018-03-26T04:10:08.961Z,5.54
2018-03-26T04:11:08.882Z,5.45
2018-03-26T04:12:08.801Z,5.50
2018-03-26T04:13:08.721Z,5.52
2018-03-26T04:14:08.642Z,5.49
2018-03-26T04:15:08.562Z,5.54
2018-03-26T04:16:08.487Z,5.52
2018-03-26T04:17:08.406Z,5.56
2018-03-26T04:18:08.323Z,5.56
2018-03-26T04:19:08.243Z,5.50
2018-03-26T04:20:08.163Z,5.50
2018-03-26T04:21:08.084Z,5.49
2018-03-26T04:22:08.007Z,5.57
2018-03-26T04:23:07.923Z,5.50
2018-03-26T04:24:07.843Z,5.49
2018-03-26T04:25:07.765Z,5.39
2018-03-26T04:26:07.684Z,5.41
2018-03-26T04:27:07.605Z,5.36
2018-03-26T04:28:07.524Z,5.44
2018-03-26T04:29:07.445Z,5.52
2018-03-26T04:30:07.420Z,5.53
2018-03-26T04:31:07.286Z,5.65
2018-03-26T04:32:07.219Z,5.67
2018-03-26T04:33:07.125Z,5.60
2018-03-26T04:34:07.045Z,5.75
2018-03-26T04:35:06.965Z,5.62
2018-03-26T04:36:06.885Z,5.67
2018-03-26T04:37:06.807Z,5.65
2018-03-26T04:38:06.726Z,5.53
2018-03-26T04:39:06.647Z,5.52
2018-03-26T04:40:06.566Z,5.53
2018-03-26T04:41:06.486Z,5.50
2018-03-26T04:42:06.407Z,5.52
2018-03-26T04:43:06.330Z,5.50
2018-03-26T04:44:06.247Z,5.52
2018-03-26T04:45:06.167Z,5.54
2018-03-26T04:46:06.089Z,5.50
2018-03-26T04:47:06.008Z,5.52
2018-03-26T04:48:05.927Z,5.54
2018-03-26T04:49:05.849Z,5.54
2018-03-26T04:50:05.768Z,5.62
2018-03-26T04:51:05.688Z,5.62
2018-03-26T04:52:05.608Z,5.63
2018-03-26T04:53:05.528Z,5.59
2018-03-26T04:54:05.448Z,5.59
2018-03-26T04:55:05.371Z,5.53
2018-03-26T04:56:05.293Z,5.67
2018-03-26T04:57:05.210Z,5.68
2018-03-26T04:58:05.128Z,5.53
2018-03-26T04:59:05.050Z,5.50
2018-03-26T05:00:04.971Z,5.54
2018-03-26T05:01:04.891Z,5.49
2018-03-26T05:02:04.811Z,5.35
2018-03-26T05:03:04.731Z,5.49
2018-03-26T05:04:04.650Z,5.53
2018-03-26T05:05:04.570Z,5.56
2018-03-26T05:06:04.501Z,5.56
2018-03-26T05:07:04.491Z,5.53
2018-03-26T05:08:04.331Z,5.54
2018-03-26T05:09:04.295Z,5.50
2018-03-26T05:10:04.172Z,5.57
2018-03-26T05:11:04.094Z,5.50
2018-03-26T05:12:04.012Z,5.52
2018-03-26T05:13:03.932Z,5.47
2018-03-26T05:14:03.852Z,5.53
2018-03-26T05:15:03.773Z,5.56
2018-03-26T05:16:03.692Z,5.50
2018-03-26T05:17:03.613Z,5.45
2018-03-26T05:18:03.533Z,5.52
2018-03-26T05:19:03.455Z,5.41
2018-03-26T05:20:03.374Z,5.57
2018-03-26T05:21:03.294Z,5.53
2018-03-26T05:22:03.214Z,5.54
2018-03-26T05:23:03.134Z,5.49
2018-03-26T05:24:03.056Z,5.57
2018-03-26T05:25:02.975Z,5.53
2018-03-26T05:26:02.895Z,5.67
2018-03-26T05:27:02.816Z,5.65
2018-03-26T05:28:02.734Z,5.63
2018-03-26T05:29:02.655Z,5.65
2018-03-26T05:30:02.576Z,5.71
2018-03-26T05:31:02.538Z,5.71
2018-03-26T05:32:02.415Z,5.74
2018-03-26T05:33:02.336Z,5.68
2018-03-26T05:34:02.261Z,5.63
2018-03-26T05:35:02.178Z,5.63
2018-03-26T05:36:02.097Z,5.63
2018-03-26T05:37:02.017Z,5.56
2018-03-26T05:38:01.937Z,5.54
2018-03-26T05:39:01.859Z,5.54
2018-03-26T05:40:01.777Z,5.53
2018-03-26T05:41:01.698Z,5.53
2018-03-26T05:42:01.640Z,5.53
2018-03-26T05:43:01.538Z,5.53
2018-03-26T05:44:01.458Z,5.52
2018-03-26T05:45:01.379Z,5.57
2018-03-26T05:46:01.303Z,5.57
2018-03-26T05:47:01.220Z,5.53
2018-03-26T05:48:01.139Z,5.52
2018-03-26T05:49:01.059Z,5.52
2018-03-26T05:50:00.979Z,5.49
2018-03-26T05:51:00.900Z,5.50
2018-03-26T05:52:00.820Z,5.50
2018-03-26T05:53:00.740Z,5.52
2018-03-26T05:54:00.660Z,5.50
2018-03-26T05:55:00.580Z,5.56
2018-03-26T05:56:00.500Z,5.52
2018-03-26T05:57:00.420Z,5.53
2018-03-26T05:58:00.344Z,5.50
2018-03-26T05:59:00.261Z,5.50
2018-03-26T06:00:00.181Z,5.52
2018-03-26T06:01:00.102Z,5.52
2018-03-26T06:02:00.022Z,5.47
2018-03-26T06:02:59.942Z,5.49
2018-03-26T06:03:59.862Z,5.42
2018-03-26T06:04:59.782Z,5.49
2018-03-26T06:05:59.705Z,5.50
2018-03-26T06:06:59.622Z,5.45
2018-03-26T06:07:59.542Z,5.52
2018-03-26T06:08:59.463Z,5.39
2018-03-26T06:09:59.383Z,5.50
2018-03-26T06:10:59.303Z,5.50
2018-03-26T06:11:59.258Z,5.54
2018-03-26T06:12:59.143Z,5.47
2018-03-26T06:13:59.071Z,5.53
2018-03-26T06:14:58.985Z,5.49
2018-03-26T06:15:58.903Z,5.53
2018-03-26T06:16:58.823Z,5.50
2018-03-26T06:17:58.744Z,5.67
2018-03-26T06:18:58.665Z,5.67
2018-03-26T06:19:58.583Z,5.70
2018-03-26T06:20:58.505Z,5.68
2018-03-26T06:21:58.424Z,5.67
2018-03-26T06:22:58.345Z,5.65
2018-03-26T06:23:58.265Z,5.65
2018-03-26T06:24:58.244Z,5.65
2018-03-26T06:25:58.105Z,5.74
2018-03-26T06:26:58.025Z,5.72
2018-03-26T06:27:57.952Z,5.72
2018-03-26T06:28:57.867Z,5.85
2018-03-26T06:29:57.786Z,5.81
2018-03-26T06:30:57.707Z,5.92
2018-03-26T06:31:57.626Z,5.86
2018-03-26T06:32:57.547Z,5.95
2018-03-26T06:33:57.467Z,5.97
2018-03-26T06:34:57.387Z,5.99
2018-03-26T06:35:57.307Z,6.11
2018-03-26T06:36:57.228Z,6.10
2018-03-26T06:37:57.150Z,6.24
2018-03-26T06:38:57.070Z,6.13
2018-03-26T06:39:56.989Z,6.29
2018-03-26T06:40:56.910Z,6.32
2018-03-26T06:41:56.829Z,6.44
2018-03-26T06:42:56.751Z,6.37
2018-03-26T06:43:56.671Z,6.42
2018-03-26T06:44:56.595Z,6.39
2018-03-26T06:45:56.512Z,6.34
2018-03-26T06:46:56.438Z,6.36
2018-03-26T06:47:56.351Z,6.33
2018-03-26T06:48:56.274Z,6.34
2018-03-26T06:49:56.194Z,6.39
2018-03-26T06:50:56.115Z,6.41
2018-03-26T06:51:56.035Z,6.41
2018-03-26T06:52:55.956Z,6.42
2018-03-26T06:53:55.877Z,6.39
2018-03-26T06:54:55.798Z,6.41
2018-03-26T06:55:55.718Z,6.44
2018-03-26T06:56:55.640Z,6.39
2018-03-26T06:57:55.561Z,6.37
2018-03-26T06:58:55.482Z,6.42
2018-03-26T06:59:55.401Z,6.37
2018-03-26T07:00:55.332Z,6.42
2018-03-26T07:01:55.245Z,6.36
2018-03-26T07:02:55.165Z,6.36
2018-03-26T07:03:55.087Z,6.36
2018-03-26T07:04:55.006Z,6.29
2018-03-26T07:05:54.926Z,6.37
2018-03-26T07:06:54.850Z,6.37
2018-03-26T07:07:54.768Z,6.41
2018-03-26T07:08:54.688Z,6.45
2018-03-26T07:09:54.610Z,6.54
2018-03-26T07:10:54.531Z,6.52
2018-03-26T07:11:54.453Z,6.63
2018-03-26T07:12:54.372Z,6.70
2018-03-26T07:13:54.297Z,6.73
2018-03-26T07:14:54.214Z,6.70
2018-03-26T07:15:54.134Z,6.68
2018-03-26T07:16:54.056Z,6.72
2018-03-26T07:17:53.977Z,6.73
2018-03-26T07:18:53.953Z,6.69
2018-03-26T07:19:53.819Z,6.72
2018-03-26T07:20:53.740Z,6.72
2018-03-26T07:21:53.664Z,6.78
2018-03-26T07:22:53.582Z,6.78
2018-03-26T07:23:53.502Z,6.87
2018-03-26T07:24:53.430Z,6.88
2018-03-26T07:25:53.345Z,6.88
2018-03-26T07:26:53.267Z,6.90
2018-03-26T07:27:53.188Z,6.87
2018-03-26T07:28:53.165Z,6.91
2018-03-26T07:29:53.030Z,6.93
2018-03-26T07:30:52.953Z,7.05
2018-03-26T07:31:52.873Z,7.09
2018-03-26T07:32:52.793Z,7.05
2018-03-26T07:33:52.718Z,7.11
2018-03-26T07:34:52.637Z,7.13
2018-03-26T07:35:52.560Z,7.16
2018-03-26T07:36:52.479Z,7.24
2018-03-26T07:37:52.401Z,7.29
2018-03-26T07:38:52.326Z,7.38
2018-03-26T07:39:52.243Z,7.37
2018-03-26T07:40:52.165Z,7.35
2018-03-26T07:41:52.087Z,7.31
2018-03-26T07:42:52.008Z,7.37
2018-03-26T07:43:51.932Z,7.39
2018-03-26T07:44:51.852Z,7.45
2018-03-26T07:45:51.774Z,7.48
2018-03-26T07:46:51.696Z,7.55
2018-03-26T07:47:51.617Z,7.52
2018-03-26T07:48:51.540Z,7.49
2018-03-26T07:49:51.461Z,7.49
2018-03-26T07:50:51.384Z,7.53
2018-03-26T07:51:51.307Z,7.56
2018-03-26T07:52:51.227Z,7.62
2018-03-26T07:53:51.150Z,7.68
2018-03-26T07:54:51.071Z,7.67
2018-03-26T07:55:50.994Z,7.72
2018-03-26T07:56:50.916Z,7.76
2018-03-26T07:57:50.838Z,7.70
2018-03-26T07:58:50.762Z,7.70
2018-03-26T07:59:50.682Z,7.52
2018-03-26T08:00:50.604Z,7.48
2018-03-26T08:01:50.527Z,7.55
2018-03-26T08:02:50.449Z,7.55
2018-03-26T08:03:50.370Z,7.59
2018-03-26T08:04:50.294Z,7.47
2018-03-26T08:05:50.215Z,7.56
2018-03-26T08:06:50.139Z,7.53
2018-03-26T08:07:50.061Z,7.41
2018-03-26T08:08:49.982Z,7.38
2018-03-26T08:09:49.905Z,7.31
2018-03-26T08:10:49.828Z,7.37
2018-03-26T08:11:49.749Z,7.30
2018-03-26T08:12:49.672Z,7.34
2018-03-26T08:13:49.593Z,7.37
2018-03-26T08:14:49.516Z,7.29
2018-03-26T08:15:49.438Z,7.26
2018-03-26T08:16:49.363Z,7.30
2018-03-26T08:17:49.281Z,7.24
2018-03-26T08:18:49.206Z,7.41
2018-03-26T08:19:49.125Z,7.34
2018-03-26T08:20:49.048Z,7.35
2018-03-26T08:21:48.972Z,7.35
2018-03-26T08:22:48.892Z,7.41
2018-03-26T08:23:48.827Z,7.52
2018-03-26T08:24:48.738Z,7.56
2018-03-26T08:25:48.657Z,7.62
2018-03-26T08:26:48.581Z,7.70
2018-03-26T08:27:48.502Z,7.72
2018-03-26T08:28:48.423Z,7.73
2018-03-26T08:29:48.348Z,7.72
2018-03-26T08:30:48.270Z,7.67
2018-03-26T08:31:48.189Z,7.68
2018-03-26T08:32:48.112Z,7.68
2018-03-26T08:33:48.040Z,7.72
2018-03-26T08:34:47.958Z,7.70
2018-03-26T08:35:47.878Z,7.75
2018-03-26T08:36:47.801Z,7.76
2018-03-26T08:37:47.724Z,7.75
2018-03-26T08:38:47.648Z,7.78
2018-03-26T08:39:47.567Z,7.73
2018-03-26T08:40:47.491Z,7.90
2018-03-26T08:41:47.412Z,7.86
2018-03-26T08:42:47.335Z,7.88
2018-03-26T08:43:47.257Z,7.86
2018-03-26T08:44:47.180Z,7.83
2018-03-26T08:45:47.101Z,7.76
2018-03-26T08:46:47.023Z,7.83
2018-03-26T08:47:46.946Z,7.76
2018-03-26T08:48:46.882Z,7.62
2018-03-26T08:49:46.854Z,7.70
2018-03-26T08:50:46.713Z,7.73
2018-03-26T08:51:46.635Z,7.70
2018-03-26T08:52:46.562Z,7.86
2018-03-26T08:53:46.481Z,7.83
2018-03-26T08:54:46.403Z,7.85
2018-03-26T08:55:46.326Z,7.88
2018-03-26T08:56:46.248Z,7.90
2018-03-26T08:57:46.170Z,7.75
2018-03-26T08:58:46.095Z,7.76
2018-03-26T08:59:46.014Z,7.76
2018-03-26T09:00:45.938Z,7.85
2018-03-26T09:01:45.859Z,7.73
2018-03-26T09:02:45.783Z,7.75
2018-03-26T09:03:45.704Z,7.78
2018-03-26T09:04:45.627Z,7.78
2018-03-26T09:05:45.554Z,7.81
2018-03-26T09:06:45.472Z,7.83
2018-03-26T09:07:45.394Z,7.76
2018-03-26T09:08:45.316Z,7.68
2018-03-26T09:09:45.240Z,7.82
2018-03-26T09:10:45.161Z,7.88
2018-03-26T09:11:45.087Z,7.83
2018-03-26T09:12:45.006Z,7.88
2018-03-26T09:13:44.929Z,7.90
2018-03-26T09:14:44.851Z,7.91
2018-03-26T09:15:44.773Z,7.70
2018-03-26T09:16:44.695Z,7.73
2018-03-26T09:17:44.617Z,7.83
2018-03-26T09:18:44.540Z,7.90
2018-03-26T09:19:44.463Z,7.86
2018-03-26T09:20:44.387Z,7.97
2018-03-26T09:21:44.307Z,7.96
2018-03-26T09:22:44.229Z,8.07
2018-03-26T09:23:44.152Z,8.17
2018-03-26T09:24:44.074Z,8.15
2018-03-26T09:25:43.996Z,8.22
2018-03-26T09:26:43.919Z,8.18
2018-03-26T09:27:43.841Z,8.12
2018-03-26T09:28:43.763Z,8.11
2018-03-26T09:29:43.687Z,8.09
2018-03-26T09:30:43.607Z,8.17
2018-03-26T09:31:43.531Z,8.09
2018-03-26T09:32:43.453Z,8.17
2018-03-26T09:33:43.376Z,8.01
2018-03-26T09:34:43.299Z,8.03
2018-03-26T09:35:43.220Z,7.97
2018-03-26T09:36:43.143Z,8.00
2018-03-26T09:37:43.066Z,8.07
2018-03-26T09:38:43.042Z,8.11
2018-03-26T09:39:42.909Z,8.19
2018-03-26T09:40:42.833Z,8.18
2018-03-26T09:41:42.756Z,8.21
2018-03-26T09:42:42.678Z,8.25
2018-03-26T09:43:42.598Z,8.21
2018-03-26T09:44:42.522Z,8.24
2018-03-26T09:45:42.448Z,8.11
2018-03-26T09:46:42.369Z,8.22
2018-03-26T09:47:42.295Z,8.21
2018-03-26T09:48:42.214Z,8.17
2018-03-26T09:49:42.136Z,8.18
2018-03-26T09:50:42.059Z,8.21
2018-03-26T09:51:41.981Z,8.19
2018-03-26T09:52:41.911Z,8.27
2018-03-26T09:53:41.826Z,8.19
2018-03-26T09:54:41.750Z,8.03
2018-03-26T09:55:41.672Z,8.14
2018-03-26T09:56:41.595Z,7.97
2018-03-26T09:57:41.518Z,8.04
2018-03-26T09:58:41.446Z,7.93
2018-03-26T09:59:41.362Z,8.00
2018-03-26T10:00:41.287Z,8.03
2018-03-26T10:01:41.211Z,8.09
2018-03-26T10:02:41.133Z,8.07
2018-03-26T10:03:41.053Z,8.00
2018-03-26T10:04:40.976Z,8.01
2018-03-26T10:05:40.898Z,8.04
2018-03-26T10:06:40.820Z,8.07
2018-03-26T10:07:40.743Z,7.99
2018-03-26T10:08:40.666Z,8.06
2018-03-26T10:09:40.589Z,8.04
2018-03-26T10:10:40.511Z,8.07
2018-03-26T10:11:40.432Z,7.96
2018-03-26T10:12:40.355Z,7.97
2018-03-26T10:13:40.278Z,8.00
2018-03-26T10:14:40.201Z,8.04
2018-03-26T10:15:40.125Z,8.09
2018-03-26T10:16:40.046Z,7.99
2018-03-26T10:17:39.967Z,8.06
2018-03-26T10:18:39.890Z,7.99
2018-03-26T10:19:39.811Z,7.96
2018-03-26T10:20:39.734Z,7.96
2018-03-26T10:21:39.656Z,7.96
2018-03-26T10:22:39.579Z,7.93
2018-03-26T10:23:39.501Z,8.00
2018-03-26T10:24:39.423Z,8.03
2018-03-26T10:25:39.349Z,8.00
2018-03-26T10:26:39.268Z,8.00
2018-03-26T10:27:39.190Z,8.07
2018-03-26T10:28:39.112Z,8.03
2018-03-26T10:29:39.034Z,8.03
2018-03-26T10:30:38.957Z,8.14
2018-03-26T10:31:38.878Z,8.15
2018-03-26T10:32:38.800Z,8.19
2018-03-26T10:33:38.723Z,8.07
2018-03-26T10:34:38.647Z,8.00
2018-03-26T10:35:38.567Z,7.99
2018-03-26T10:36:38.489Z,8.06
2018-03-26T10:37:38.412Z,8.01
2018-03-26T10:38:38.335Z,8.09
2018-03-26T10:39:38.256Z,8.12
2018-03-26T10:40:38.185Z,8.14
2018-03-26T10:41:38.101Z,8.17
2018-03-26T10:42:38.023Z,8.25
2018-03-26T10:43:37.946Z,8.25
2018-03-26T10:44:37.872Z,8.29
2018-03-26T10:45:37.791Z,8.25
2018-03-26T10:46:37.714Z,8.22
2018-03-26T10:47:37.634Z,8.29
2018-03-26T10:48:37.557Z,8.34
2018-03-26T10:49:37.480Z,8.21
2018-03-26T10:50:37.404Z,8.24
2018-03-26T10:51:37.325Z,8.21
2018-03-26T10:52:37.247Z,8.25
2018-03-26T10:53:37.170Z,8.24
2018-03-26T10:54:37.093Z,8.29
2018-03-26T10:55:37.015Z,8.27
2018-03-26T10:56:36.937Z,8.32
2018-03-26T10:57:36.860Z,8.32
2018-03-26T10:58:36.782Z,8.33
2018-03-26T10:59:36.705Z,8.22
2018-03-26T11:00:36.627Z,8.29
2018-03-26T11:01:36.550Z,8.33
2018-03-26T11:02:36.473Z,8.32
2018-03-26T11:03:36.395Z,8.29
2018-03-26T11:04:36.318Z,8.30
2018-03-26T11:05:36.250Z,8.33
2018-03-26T11:06:36.163Z,8.34
2018-03-26T11:07:36.085Z,8.27
2018-03-26T11:08:36.009Z,8.24
2018-03-26T11:09:35.934Z,8.43
2018-03-26T11:10:35.854Z,8.44
2018-03-26T11:11:35.776Z,8.44
2018-03-26T11:12:35.699Z,8.39
2018-03-26T11:13:35.622Z,8.39
2018-03-26T11:14:35.544Z,8.39
2018-03-26T11:15:35.467Z,8.36
2018-03-26T11:16:35.389Z,8.29
2018-03-26T11:17:35.313Z,8.32
2018-03-26T11:18:35.236Z,8.36
2018-03-26T11:19:35.158Z,8.36
2018-03-26T11:20:35.092Z,8.39
2018-03-26T11:21:35.004Z,8.36
2018-03-26T11:22:34.953Z,8.40
2018-03-26T11:23:34.851Z,8.37
2018-03-26T11:24:34.773Z,8.42
2018-03-26T11:25:34.696Z,8.44
2018-03-26T11:26:34.618Z,8.54
2018-03-26T11:27:34.541Z,8.58
2018-03-26T11:28:34.466Z,8.55
2018-03-26T11:29:34.390Z,8.57
2018-03-26T11:30:34.310Z,8.48
2018-03-26T11:31:34.233Z,8.54
2018-03-26T11:32:34.158Z,8.57
2018-03-26T11:33:34.079Z,8.62
2018-03-26T11:34:34.001Z,8.65
2018-03-26T11:35:33.925Z,8.77
2018-03-26T11:36:33.848Z,8.80
2018-03-26T11:37:33.771Z,8.82
2018-03-26T11:38:33.695Z,8.68
2018-03-26T11:39:33.617Z,8.80
2018-03-26T11:40:33.540Z,8.88
2018-03-26T11:41:33.463Z,8.90
2018-03-26T11:42:33.387Z,8.88
2018-03-26T11:43:33.309Z,8.82
2018-03-26T11:44:33.233Z,8.84
2018-03-26T11:45:33.156Z,8.82
2018-03-26T11:46:33.080Z,8.80
2018-03-26T11:47:33.002Z,8.87
2018-03-26T11:48:32.926Z,8.91
2018-03-26T11:49:32.851Z,8.77
2018-03-26T11:50:32.771Z,8.82
2018-03-26T11:51:32.703Z,8.85
2018-03-26T11:52:32.619Z,8.90
2018-03-26T11:53:32.542Z,8.95
2018-03-26T11:54:32.466Z,8.90
2018-03-26T11:55:32.388Z,9.02
2018-03-26T11:56:32.313Z,8.80
2018-03-26T11:57:32.236Z,8.97
2018-03-26T11:58:32.160Z,8.94
2018-03-26T11:59:32.083Z,8.93
2018-03-26T12:00:32.005Z,8.97
2018-03-26T12:01:31.929Z,8.97
2018-03-26T12:02:31.854Z,8.91
2018-03-26T12:03:31.776Z,8.98
2018-03-26T12:04:31.700Z,9.05
2018-03-26T12:05:31.628Z,9.09
2018-03-26T12:06:31.547Z,9.13
2018-03-26T12:07:31.470Z,9.09
2018-03-26T12:08:31.400Z,9.16
2018-03-26T12:09:31.318Z,9.02
2018-03-26T12:10:31.243Z,8.94
2018-03-26T12:11:31.164Z,8.93
2018-03-26T12:12:31.088Z,9.05
2018-03-26T12:13:31.013Z,8.91
2018-03-26T12:14:30.935Z,8.91
2018-03-26T12:15:30.858Z,8.87
2018-03-26T12:16:30.783Z,8.90
2018-03-26T12:17:30.707Z,8.98
2018-03-26T12:18:30.629Z,8.90
2018-03-26T12:19:30.556Z,9.02
2018-03-26T12:20:30.476Z,9.05
2018-03-26T12:21:30.400Z,9.09
2018-03-26T12:22:30.323Z,9.10
2018-03-26T12:23:30.245Z,9.13
2018-03-26T12:24:30.174Z,9.05
2018-03-26T12:25:30.094Z,8.97
2018-03-26T12:26:30.017Z,9.00
2018-03-26T12:27:29.940Z,8.97
2018-03-26T12:28:29.864Z,8.95
2018-03-26T12:29:29.787Z,9.05
2018-03-26T12:30:29.711Z,9.00
2018-03-26T12:31:29.635Z,9.00
2018-03-26T12:32:29.610Z,9.10
2018-03-26T12:33:29.482Z,9.13
2018-03-26T12:34:29.405Z,9.16
2018-03-26T12:35:29.328Z,9.24
2018-03-26T12:36:29.251Z,9.25
2018-03-26T12:37:29.175Z,9.32
2018-03-26T12:38:29.099Z,9.42
2018-03-26T12:39:29.022Z,9.38
2018-03-26T12:40:28.946Z,9.43
2018-03-26T12:41:28.878Z,9.45
2018-03-26T12:42:28.794Z,9.46
2018-03-26T12:43:28.716Z,9.50
2018-03-26T12:44:28.641Z,9.49
2018-03-26T12:45:28.602Z,9.40
2018-03-26T12:46:28.492Z,9.47
2018-03-26T12:47:28.412Z,9.38
2018-03-26T12:48:28.337Z,9.40
2018-03-26T12:49:28.261Z,9.34
2018-03-26T12:50:28.185Z,9.32
2018-03-26T12:51:28.108Z,9.29
2018-03-26T12:52:28.031Z,9.35
2018-03-26T12:53:27.955Z,9.45
2018-03-26T12:54:27.880Z,9.42
2018-03-26T12:55:27.804Z,9.40
2018-03-26T12:56:27.727Z,9.35
2018-03-26T12:57:27.652Z,9.43
2018-03-26T12:58:27.576Z,9.37
2018-03-26T12:59:27.499Z,9.45
2018-03-26T13:00:27.424Z,9.42
2018-03-26T13:01:27.348Z,9.45
2018-03-26T13:02:27.272Z,9.38
2018-03-26T13:03:27.195Z,9.34
2018-03-26T13:04:27.119Z,9.24
2018-03-26T13:05:27.044Z,9.24
2018-03-26T13:06:26.966Z,9.16
2018-03-26T13:07:26.891Z,9.13
2018-03-26T13:08:26.814Z,9.09
2018-03-26T13:09:26.741Z,9.13
2018-03-26T13:10:26.662Z,9.17
2018-03-26T13:11:26.584Z,9.20
2018-03-26T13:12:26.509Z,9.24
2018-03-26T13:13:26.432Z,9.32
2018-03-26T13:14:26.357Z,9.19
2018-03-26T13:15:26.280Z,9.22
2018-03-26T13:16:26.204Z,9.25
2018-03-26T13:17:26.133Z,9.37